ESSB/BMA METAR and TAF weather

Enter ICAO airport designator
Station Type Date Time Source
ESSB METAR 2022/05/26 04:20 UTC NOAA

ESSB 260420Z VRB03KT CAVOK 11/07 Q1004


Station Type Date Time Source
ESSB Decoded METAR 2022/05/26 04:20 UTC NOAA

Stockholm / Bromma, Sweden (ESSB) 59-21N 017-57E 14M
May 26, 2022 - 12:20 AM EDT / 2022.05.26 0420 UTC
Wind: Variable at 3 MPH (3 KT):0
Visibility: greater than 7 mile(s):0
Temperature: 51 F (11 C)
Dew Point: 44 F (7 C)
Relative Humidity: 76%
Pressure (altimeter): 29.65 in. Hg (1004 hPa)
ob: ESSB 260420Z VRB03KT CAVOK 11/07 Q1004
cycle: 4

Station Type Date Time Source
ESSB TAF 2017/03/27 06:35 UTC NOAA

TAF ESSB 270530Z 2706/2724 27008KT CAVOK
BECMG 2710/2713 29015G25KT

Example: see airport list